sensor_id;sensor_type;location;lat;lon;timestamp;temperature;humidity
36790;DHT22;22740;52.182;8.780;2023-01-28T00:03:10;0.70;99.90
36790;DHT22;22740;52.182;8.780;2023-01-28T00:09:12;0.80;99.90
36790;DHT22;22740;52.182;8.780;2023-01-28T00:15:14;0.80;99.90
36790;DHT22;22740;52.182;8.780;2023-01-28T00:21:16;0.80;99.90
36790;DHT22;22740;52.182;8.780;2023-01-28T00:27:18;0.80;99.90
36790;DHT22;22740;52.182;8.780;2023-01-28T00:33:20;0.70;99.90
36790;DHT22;22740;52.182;8.780;2023-01-28T00:39:24;0.70;99.90
36790;DHT22;22740;52.182;8.780;2023-01-28T00:45:26;0.80;99.90
36790;DHT22;22740;52.182;8.780;2023-01-28T00:51:28;0.80;99.90
36790;DHT22;22740;52.182;8.780;2023-01-28T00:57:30;0.70;99.90
36790;DHT22;22740;52.182;8.780;2023-01-28T01:03:32;0.70;99.90
36790;DHT22;22740;52.182;8.780;2023-01-28T01:09:34;0.80;99.90
36790;DHT22;22740;52.182;8.780;2023-01-28T01:15:36;0.70;99.90
36790;DHT22;22740;52.182;8.780;2023-01-28T01:21:38;0.60;99.90
36790;DHT22;22740;52.182;8.780;2023-01-28T01:27:40;0.80;99.90
36790;DHT22;22740;52.182;8.780;2023-01-28T01:33:43;0.80;99.90
36790;DHT22;22740;52.182;8.780;2023-01-28T01:39:46;0.90;99.90
36790;DHT22;22740;52.182;8.780;2023-01-28T01:45:58;0.80;99.90
36790;DHT22;22740;52.182;8.780;2023-01-28T01:52:10;0.60;99.90
36790;DHT22;22740;52.182;8.780;2023-01-28T01:58:16;0.60;99.90
36790;DHT22;22740;52.182;8.780;2023-01-28T02:04:25;0.70;99.90
36790;DHT22;22740;52.182;8.780;2023-01-28T02:10:28;0.70;99.90
36790;DHT22;22740;52.182;8.780;2023-01-28T02:16:30;0.60;99.90
36790;DHT22;22740;52.182;8.780;2023-01-28T02:29:08;0.70;99.90
36790;DHT22;22740;52.182;8.780;2023-01-28T02:35:21;0.60;99.90
36790;DHT22;22740;52.182;8.780;2023-01-28T02:41:33;0.60;99.90
36790;DHT22;22740;52.182;8.780;2023-01-28T02:47:37;0.70;99.90
36790;DHT22;22740;52.182;8.780;2023-01-28T02:54:31;0.70;99.90
36790;DHT22;22740;52.182;8.780;2023-01-28T03:06:52;0.50;99.90
36790;DHT22;22740;52.182;8.780;2023-01-28T03:12:57;0.50;99.90
36790;DHT22;22740;52.182;8.780;2023-01-28T03:19:19;0.60;99.90
36790;DHT22;22740;52.182;8.780;2023-01-28T03:25:42;0.60;99.90
36790;DHT22;22740;52.182;8.780;2023-01-28T03:32:03;0.60;99.90
36790;DHT22;22740;52.182;8.780;2023-01-28T03:38:24;0.70;99.90
36790;DHT22;22740;52.182;8.780;2023-01-28T03:44:34;0.60;99.90
36790;DHT22;22740;52.182;8.780;2023-01-28T03:50:56;0.60;99.90
36790;DHT22;22740;52.182;8.780;2023-01-28T03:56:57;0.50;99.90
36790;DHT22;22740;52.182;8.780;2023-01-28T04:02:59;0.60;99.90
36790;DHT22;22740;52.182;8.780;2023-01-28T04:09:02;0.50;99.90
36790;DHT22;22740;52.182;8.780;2023-01-28T04:15:06;0.50;99.90
36790;DHT22;22740;52.182;8.780;2023-01-28T04:21:16;0.50;99.90
36790;DHT22;22740;52.182;8.780;2023-01-28T04:27:18;0.40;99.90
36790;DHT22;22740;52.182;8.780;2023-01-28T04:33:20;0.40;99.90
36790;DHT22;22740;52.182;8.780;2023-01-28T04:39:22;0.40;99.90
36790;DHT22;22740;52.182;8.780;2023-01-28T04:45:24;0.30;99.90
36790;DHT22;22740;52.182;8.780;2023-01-28T04:51:26;0.30;99.90
36790;DHT22;22740;52.182;8.780;2023-01-28T04:57:28;0.30;99.90
36790;DHT22;22740;52.182;8.780;2023-01-28T05:03:30;0.30;99.90
36790;DHT22;22740;52.182;8.780;2023-01-28T05:09:32;0.40;99.90
36790;DHT22;22740;52.182;8.780;2023-01-28T05:15:34;0.40;99.90
36790;DHT22;22740;52.182;8.780;2023-01-28T05:21:36;0.30;99.90
36790;DHT22;22740;52.182;8.780;2023-01-28T05:27:38;0.30;99.90
36790;DHT22;22740;52.182;8.780;2023-01-28T05:33:40;0.30;99.90
36790;DHT22;22740;52.182;8.780;2023-01-28T05:39:41;0.30;99.90
36790;DHT22;22740;52.182;8.780;2023-01-28T05:45:43;0.20;99.90
36790;DHT22;22740;52.182;8.780;2023-01-28T05:51:46;0.20;99.90
36790;DHT22;22740;52.182;8.780;2023-01-28T05:57:49;0.20;99.90
36790;DHT22;22740;52.182;8.780;2023-01-28T06:03:51;0.10;99.90
36790;DHT22;22740;52.182;8.780;2023-01-28T06:09:53;0.20;99.90
36790;DHT22;22740;52.182;8.780;2023-01-28T06:15:54;0.30;99.90
36790;DHT22;22740;52.182;8.780;2023-01-28T06:21:56;0.20;99.90
36790;DHT22;22740;52.182;8.780;2023-01-28T06:27:58;0.20;99.90
36790;DHT22;22740;52.182;8.780;2023-01-28T06:34:00;0.20;99.90
36790;DHT22;22740;52.182;8.780;2023-01-28T06:40:02;0.00;99.90
36790;DHT22;22740;52.182;8.780;2023-01-28T06:46:04;0.10;99.90
36790;DHT22;22740;52.182;8.780;2023-01-28T06:52:06;0.20;99.90
36790;DHT22;22740;52.182;8.780;2023-01-28T06:58:08;0.10;99.90
36790;DHT22;22740;52.182;8.780;2023-01-28T07:04:10;0.10;99.90
36790;DHT22;22740;52.182;8.780;2023-01-28T07:10:12;0.10;99.90
36790;DHT22;22740;52.182;8.780;2023-01-28T07:16:16;0.10;99.90
36790;DHT22;22740;52.182;8.780;2023-01-28T07:22:18;0.00;99.90
36790;DHT22;22740;52.182;8.780;2023-01-28T07:28:20;0.00;99.90
36790;DHT22;22740;52.182;8.780;2023-01-28T07:34:22;0.10;99.90
36790;DHT22;22740;52.182;8.780;2023-01-28T07:40:26;0.20;99.90
36790;DHT22;22740;52.182;8.780;2023-01-28T07:46:28;0.20;99.90
36790;DHT22;22740;52.182;8.780;2023-01-28T07:52:30;0.30;99.90
36790;DHT22;22740;52.182;8.780;2023-01-28T07:58:38;0.20;99.90
36790;DHT22;22740;52.182;8.780;2023-01-28T08:04:40;0.30;99.90
36790;DHT22;22740;52.182;8.780;2023-01-28T08:10:43;0.30;99.90
36790;DHT22;22740;52.182;8.780;2023-01-28T08:16:45;0.40;99.90
36790;DHT22;22740;52.182;8.780;2023-01-28T08:22:47;0.60;99.90
36790;DHT22;22740;52.182;8.780;2023-01-28T08:28:49;0.50;99.90
36790;DHT22;22740;52.182;8.780;2023-01-28T08:34:52;0.60;99.90
36790;DHT22;22740;52.182;8.780;2023-01-28T08:40:55;0.60;99.90
36790;DHT22;22740;52.182;8.780;2023-01-28T08:46:58;0.60;99.90
36790;DHT22;22740;52.182;8.780;2023-01-28T08:53:09;0.50;99.90
36790;DHT22;22740;52.182;8.780;2023-01-28T08:59:11;0.70;99.90
36790;DHT22;22740;52.182;8.780;2023-01-28T09:05:13;0.60;99.90
36790;DHT22;22740;52.182;8.780;2023-01-28T09:11:15;0.70;99.90
36790;DHT22;22740;52.182;8.780;2023-01-28T09:17:18;0.60;99.90
36790;DHT22;22740;52.182;8.780;2023-01-28T09:23:20;0.60;99.90
36790;DHT22;22740;52.182;8.780;2023-01-28T09:29:22;0.60;99.90
36790;DHT22;22740;52.182;8.780;2023-01-28T09:35:24;0.60;99.90
36790;DHT22;22740;52.182;8.780;2023-01-28T09:47:53;0.60;99.90
36790;DHT22;22740;52.182;8.780;2023-01-28T09:53:59;0.60;99.90
36790;DHT22;22740;52.182;8.780;2023-01-28T10:00:12;0.60;99.90
36790;DHT22;22740;52.182;8.780;2023-01-28T10:19:01;0.90;99.90
36790;DHT22;22740;52.182;8.780;2023-01-28T10:25:12;1.00;99.90
36790;DHT22;22740;52.182;8.780;2023-01-28T10:31:16;1.10;99.90
36790;DHT22;22740;52.182;8.780;2023-01-28T10:37:18;1.30;99.90
36790;DHT22;22740;52.182;8.780;2023-01-28T10:43:23;1.10;99.90
36790;DHT22;22740;52.182;8.780;2023-01-28T10:49:27;1.00;99.90
36790;DHT22;22740;52.182;8.780;2023-01-28T10:55:51;1.00;99.90
36790;DHT22;22740;52.182;8.780;2023-01-28T11:01:58;0.80;99.90
36790;DHT22;22740;52.182;8.780;2023-01-28T11:08:15;0.80;99.90
36790;DHT22;22740;52.182;8.780;2023-01-28T11:14:25;1.00;99.90
36790;DHT22;22740;52.182;8.780;2023-01-28T11:20:30;0.80;99.90
36790;DHT22;22740;52.182;8.780;2023-01-28T11:26:37;1.10;99.90
36790;DHT22;22740;52.182;8.780;2023-01-28T11:32:40;1.00;99.90
36790;DHT22;22740;52.182;8.780;2023-01-28T11:38:56;1.70;99.90
36790;DHT22;22740;52.182;8.780;2023-01-28T11:44:58;2.10;99.90
36790;DHT22;22740;52.182;8.780;2023-01-28T11:57:32;2.40;99.90
36790;DHT22;22740;52.182;8.780;2023-01-28T12:04:20;2.60;99.90
36790;DHT22;22740;52.182;8.780;2023-01-28T12:29:50;2.30;99.90
36790;DHT22;22740;52.182;8.780;2023-01-28T12:36:34;2.50;99.90
36790;DHT22;22740;52.182;8.780;2023-01-28T12:42:44;2.40;99.90
36790;DHT22;22740;52.182;8.780;2023-01-28T12:48:53;2.40;99.90
36790;DHT22;22740;52.182;8.780;2023-01-28T13:01:23;3.00;99.90
36790;DHT22;22740;52.182;8.780;2023-01-28T13:07:51;2.40;99.90
36790;DHT22;22740;52.182;8.780;2023-01-28T13:13:55;2.40;99.90
36790;DHT22;22740;52.182;8.780;2023-01-28T13:19:58;2.40;99.90
36790;DHT22;22740;52.182;8.780;2023-01-28T13:32:33;2.10;99.90
36790;DHT22;22740;52.182;8.780;2023-01-28T13:38:35;1.90;99.90
36790;DHT22;22740;52.182;8.780;2023-01-28T13:44:37;2.30;99.90
36790;DHT22;22740;52.182;8.780;2023-01-28T13:50:41;2.10;99.90
36790;DHT22;22740;52.182;8.780;2023-01-28T14:21:56;1.50;99.90
36790;DHT22;22740;52.182;8.780;2023-01-28T14:27:59;1.50;99.90
36790;DHT22;22740;52.182;8.780;2023-01-28T14:34:31;1.40;99.90
36790;DHT22;22740;52.182;8.780;2023-01-28T14:40:37;1.50;99.90
36790;DHT22;22740;52.182;8.780;2023-01-28T14:46:46;1.50;99.90
36790;DHT22;22740;52.182;8.780;2023-01-28T15:05:38;1.40;99.90
36790;DHT22;22740;52.182;8.780;2023-01-28T15:11:42;1.20;99.90
36790;DHT22;22740;52.182;8.780;2023-01-28T15:17:46;1.20;99.90
36790;DHT22;22740;52.182;8.780;2023-01-28T15:23:55;1.20;99.90
36790;DHT22;22740;52.182;8.780;2023-01-28T15:29:58;1.00;99.90
36790;DHT22;22740;52.182;8.780;2023-01-28T15:36:00;1.10;99.90
36790;DHT22;22740;52.182;8.780;2023-01-28T15:42:05;1.10;99.90
36790;DHT22;22740;52.182;8.780;2023-01-28T15:48:07;0.90;99.90
36790;DHT22;22740;52.182;8.780;2023-01-28T15:54:12;0.80;99.90
36790;DHT22;22740;52.182;8.780;2023-01-28T16:00:18;0.60;99.90
36790;DHT22;22740;52.182;8.780;2023-01-28T16:06:21;0.40;99.90
36790;DHT22;22740;52.182;8.780;2023-01-28T16:12:23;0.30;99.90
36790;DHT22;22740;52.182;8.780;2023-01-28T16:18:46;0.20;99.90
36790;DHT22;22740;52.182;8.780;2023-01-28T16:24:52;0.10;99.90
36790;DHT22;22740;52.182;8.780;2023-01-28T16:30:55;0.10;99.90
36790;DHT22;22740;52.182;8.780;2023-01-28T16:36:58;0.10;99.90
36790;DHT22;22740;52.182;8.780;2023-01-28T16:43:01;-0.10;99.90
36790;DHT22;22740;52.182;8.780;2023-01-28T16:49:03;-0.20;99.90
36790;DHT22;22740;52.182;8.780;2023-01-28T16:55:06;-0.30;99.90
36790;DHT22;22740;52.182;8.780;2023-01-28T17:01:11;-0.30;99.90
36790;DHT22;22740;52.182;8.780;2023-01-28T17:07:13;-0.40;99.90
36790;DHT22;22740;52.182;8.780;2023-01-28T17:13:15;-0.50;99.90
36790;DHT22;22740;52.182;8.780;2023-01-28T17:19:17;-0.60;99.90
36790;DHT22;22740;52.182;8.780;2023-01-28T17:25:20;-0.60;99.90
36790;DHT22;22740;52.182;8.780;2023-01-28T17:31:22;-0.60;99.90
36790;DHT22;22740;52.182;8.780;2023-01-28T17:37:24;-0.70;99.90
36790;DHT22;22740;52.182;8.780;2023-01-28T17:43:26;-0.70;99.90
36790;DHT22;22740;52.182;8.780;2023-01-28T17:49:28;-0.70;99.90
36790;DHT22;22740;52.182;8.780;2023-01-28T17:55:33;-0.80;99.90
36790;DHT22;22740;52.182;8.780;2023-01-28T18:01:35;-0.80;99.90
36790;DHT22;22740;52.182;8.780;2023-01-28T18:07:37;-0.80;99.90
36790;DHT22;22740;52.182;8.780;2023-01-28T18:13:40;-0.90;99.90
36790;DHT22;22740;52.182;8.780;2023-01-28T18:19:42;-0.80;99.90
36790;DHT22;22740;52.182;8.780;2023-01-28T18:25:44;-0.80;99.90
36790;DHT22;22740;52.182;8.780;2023-01-28T18:31:47;-0.80;99.90
36790;DHT22;22740;52.182;8.780;2023-01-28T18:37:49;-0.70;99.90
36790;DHT22;22740;52.182;8.780;2023-01-28T18:43:51;-0.70;99.90
36790;DHT22;22740;52.182;8.780;2023-01-28T18:49:52;-0.80;99.90
36790;DHT22;22740;52.182;8.780;2023-01-28T18:55:54;-0.80;99.90
36790;DHT22;22740;52.182;8.780;2023-01-28T19:01:56;-0.80;99.90
36790;DHT22;22740;52.182;8.780;2023-01-28T19:07:58;-0.80;99.90
36790;DHT22;22740;52.182;8.780;2023-01-28T19:14:00;-0.80;99.90
36790;DHT22;22740;52.182;8.780;2023-01-28T19:20:02;-0.90;99.90
36790;DHT22;22740;52.182;8.780;2023-01-28T19:26:04;-0.90;99.90
36790;DHT22;22740;52.182;8.780;2023-01-28T19:32:06;-0.80;99.90
36790;DHT22;22740;52.182;8.780;2023-01-28T19:38:08;-0.70;99.90
36790;DHT22;22740;52.182;8.780;2023-01-28T19:44:10;-0.60;99.90
36790;DHT22;22740;52.182;8.780;2023-01-28T19:50:12;-0.60;99.90
36790;DHT22;22740;52.182;8.780;2023-01-28T19:56:15;-0.50;99.90
36790;DHT22;22740;52.182;8.780;2023-01-28T20:02:19;-0.50;99.90
36790;DHT22;22740;52.182;8.780;2023-01-28T20:08:20;-0.40;99.90
36790;DHT22;22740;52.182;8.780;2023-01-28T20:14:22;-0.30;99.90
36790;DHT22;22740;52.182;8.780;2023-01-28T20:20:24;-0.30;99.90
36790;DHT22;22740;52.182;8.780;2023-01-28T20:26:29;-0.30;99.90
36790;DHT22;22740;52.182;8.780;2023-01-28T20:32:34;-0.30;99.90
36790;DHT22;22740;52.182;8.780;2023-01-28T20:38:41;-0.30;99.90
36790;DHT22;22740;52.182;8.780;2023-01-28T20:44:44;-0.30;99.90
36790;DHT22;22740;52.182;8.780;2023-01-28T20:50:46;-0.30;99.90
36790;DHT22;22740;52.182;8.780;2023-01-28T20:56:48;-0.30;99.90
36790;DHT22;22740;52.182;8.780;2023-01-28T21:02:50;-0.30;99.90
36790;DHT22;22740;52.182;8.780;2023-01-28T21:08:52;-0.20;99.90
36790;DHT22;22740;52.182;8.780;2023-01-28T21:14:55;-0.20;99.90
36790;DHT22;22740;52.182;8.780;2023-01-28T21:21:10;-0.20;99.90
36790;DHT22;22740;52.182;8.780;2023-01-28T21:27:15;-0.20;99.90
36790;DHT22;22740;52.182;8.780;2023-01-28T21:33:17;-0.20;99.90
36790;DHT22;22740;52.182;8.780;2023-01-28T21:39:19;-0.10;99.90
36790;DHT22;22740;52.182;8.780;2023-01-28T21:45:21;-0.20;99.90
36790;DHT22;22740;52.182;8.780;2023-01-28T21:51:23;-0.20;99.90
36790;DHT22;22740;52.182;8.780;2023-01-28T21:57:38;-0.20;99.90
36790;DHT22;22740;52.182;8.780;2023-01-28T22:03:41;-0.20;99.90
36790;DHT22;22740;52.182;8.780;2023-01-28T22:09:44;-0.10;99.90
36790;DHT22;22740;52.182;8.780;2023-01-28T22:15:46;-0.20;99.90
36790;DHT22;22740;52.182;8.780;2023-01-28T22:21:47;-0.10;99.90
36790;DHT22;22740;52.182;8.780;2023-01-28T22:27:49;-0.10;99.90
36790;DHT22;22740;52.182;8.780;2023-01-28T22:33:51;-0.10;99.90
36790;DHT22;22740;52.182;8.780;2023-01-28T22:39:53;-0.10;99.90
36790;DHT22;22740;52.182;8.780;2023-01-28T22:46:02;-0.10;99.90
36790;DHT22;22740;52.182;8.780;2023-01-28T22:52:04;-0.10;99.90
36790;DHT22;22740;52.182;8.780;2023-01-28T22:58:06;-0.10;99.90
36790;DHT22;22740;52.182;8.780;2023-01-28T23:04:10;-0.10;99.90
36790;DHT22;22740;52.182;8.780;2023-01-28T23:10:12;-0.20;99.90
36790;DHT22;22740;52.182;8.780;2023-01-28T23:16:14;-0.20;99.90
36790;DHT22;22740;52.182;8.780;2023-01-28T23:22:35;-0.20;99.90
36790;DHT22;22740;52.182;8.780;2023-01-28T23:28:55;-0.20;99.90
36790;DHT22;22740;52.182;8.780;2023-01-28T23:34:57;-0.20;99.90
36790;DHT22;22740;52.182;8.780;2023-01-28T23:40:59;-0.20;99.90
36790;DHT22;22740;52.182;8.780;2023-01-28T23:47:01;-0.20;99.90
36790;DHT22;22740;52.182;8.780;2023-01-28T23:53:03;-0.20;99.90
36790;DHT22;22740;52.182;8.780;2023-01-28T23:59:06;-0.30;99.90
